sensor_id;sensor_type;location;lat;lon;timestamp;P1;durP1;ratioP1;P2;durP2;ratioP2
13279;SDS011;6708;49.814;8.652;2023-08-21T00:02:04;2.57;;;2.47;;
13279;SDS011;6708;49.814;8.652;2023-08-21T00:04:32;2.97;;;2.77;;
13279;SDS011;6708;49.814;8.652;2023-08-21T00:07:03;7.30;;;2.77;;
13279;SDS011;6708;49.814;8.652;2023-08-21T00:09:34;2.63;;;2.53;;
13279;SDS011;6708;49.814;8.652;2023-08-21T00:12:03;2.73;;;2.53;;
13279;SDS011;6708;49.814;8.652;2023-08-21T00:14:32;2.50;;;2.30;;
13279;SDS011;6708;49.814;8.652;2023-08-21T00:17:01;2.33;;;2.23;;
13279;SDS011;6708;49.814;8.652;2023-08-21T00:19:29;2.60;;;2.50;;
13279;SDS011;6708;49.814;8.652;2023-08-21T00:21:57;2.70;;;2.50;;
13279;SDS011;6708;49.814;8.652;2023-08-21T00:24:28;2.20;;;2.10;;
13279;SDS011;6708;49.814;8.652;2023-08-21T00:26:57;2.37;;;2.27;;
13279;SDS011;6708;49.814;8.652;2023-08-21T00:29:27;2.63;;;2.53;;
13279;SDS011;6708;49.814;8.652;2023-08-21T00:31:55;2.70;;;2.50;;
13279;SDS011;6708;49.814;8.652;2023-08-21T00:34:24;2.40;;;2.30;;
13279;SDS011;6708;49.814;8.652;2023-08-21T00:36:52;2.30;;;2.20;;
13279;SDS011;6708;49.814;8.652;2023-08-21T00:39:21;2.80;;;2.60;;
13279;SDS011;6708;49.814;8.652;2023-08-21T00:41:52;2.47;;;2.33;;
13279;SDS011;6708;49.814;8.652;2023-08-21T00:44:20;2.33;;;2.20;;
13279;SDS011;6708;49.814;8.652;2023-08-21T00:46:49;2.90;;;2.70;;
13279;SDS011;6708;49.814;8.652;2023-08-21T00:49:17;3.00;;;2.80;;
13279;SDS011;6708;49.814;8.652;2023-08-21T00:51:46;3.17;;;2.87;;
13279;SDS011;6708;49.814;8.652;2023-08-21T00:54:14;2.73;;;2.53;;
13279;SDS011;6708;49.814;8.652;2023-08-21T00:56:43;2.40;;;2.20;;
13279;SDS011;6708;49.814;8.652;2023-08-21T00:59:14;2.90;;;2.70;;
13279;SDS011;6708;49.814;8.652;2023-08-21T01:01:42;2.70;;;2.50;;
13279;SDS011;6708;49.814;8.652;2023-08-21T01:04:10;2.70;;;2.33;;
13279;SDS011;6708;49.814;8.652;2023-08-21T01:06:39;2.53;;;2.43;;
13279;SDS011;6708;49.814;8.652;2023-08-21T01:09:08;3.10;;;2.90;;
13279;SDS011;6708;49.814;8.652;2023-08-21T01:11:41;2.90;;;2.80;;
13279;SDS011;6708;49.814;8.652;2023-08-21T01:14:17;2.90;;;2.70;;
13279;SDS011;6708;49.814;8.652;2023-08-21T01:16:50;2.47;;;2.37;;
13279;SDS011;6708;49.814;8.652;2023-08-21T01:19:25;3.00;;;2.80;;
13279;SDS011;6708;49.814;8.652;2023-08-21T01:21:56;3.23;;;3.03;;
13279;SDS011;6708;49.814;8.652;2023-08-21T01:24:27;2.80;;;2.43;;
13279;SDS011;6708;49.814;8.652;2023-08-21T01:26:56;2.90;;;2.80;;
13279;SDS011;6708;49.814;8.652;2023-08-21T01:29:25;2.93;;;2.83;;
13279;SDS011;6708;49.814;8.652;2023-08-21T01:31:55;3.10;;;2.80;;
13279;SDS011;6708;49.814;8.652;2023-08-21T01:34:28;3.00;;;2.80;;
13279;SDS011;6708;49.814;8.652;2023-08-21T01:36:58;3.07;;;2.97;;
13279;SDS011;6708;49.814;8.652;2023-08-21T01:39:29;3.37;;;3.17;;
13279;SDS011;6708;49.814;8.652;2023-08-21T01:41:58;3.03;;;2.83;;
13279;SDS011;6708;49.814;8.652;2023-08-21T01:44:26;3.23;;;2.80;;
13279;SDS011;6708;49.814;8.652;2023-08-21T01:46:55;2.87;;;2.77;;
13279;SDS011;6708;49.814;8.652;2023-08-21T01:49:23;3.30;;;3.10;;
13279;SDS011;6708;49.814;8.652;2023-08-21T01:51:51;3.00;;;2.80;;
13279;SDS011;6708;49.814;8.652;2023-08-21T01:54:20;3.80;;;2.70;;
13279;SDS011;6708;49.814;8.652;2023-08-21T01:56:51;3.07;;;2.87;;
13279;SDS011;6708;49.814;8.652;2023-08-21T01:59:19;2.90;;;2.77;;
13279;SDS011;6708;49.814;8.652;2023-08-21T02:01:48;4.90;;;2.93;;
13279;SDS011;6708;49.814;8.652;2023-08-21T02:04:16;2.80;;;2.70;;
13279;SDS011;6708;49.814;8.652;2023-08-21T02:06:44;4.43;;;2.67;;
13279;SDS011;6708;49.814;8.652;2023-08-21T02:09:13;3.50;;;3.20;;
13279;SDS011;6708;49.814;8.652;2023-08-21T02:11:41;3.40;;;3.20;;
13279;SDS011;6708;49.814;8.652;2023-08-21T02:14:12;3.50;;;3.23;;
13279;SDS011;6708;49.814;8.652;2023-08-21T02:16:41;3.53;;;3.20;;
13279;SDS011;6708;49.814;8.652;2023-08-21T02:19:09;3.40;;;3.20;;
13279;SDS011;6708;49.814;8.652;2023-08-21T02:21:37;3.50;;;3.30;;
13279;SDS011;6708;49.814;8.652;2023-08-21T02:24:06;3.37;;;3.17;;
13279;SDS011;6708;49.814;8.652;2023-08-21T02:26:34;3.40;;;3.20;;
13279;SDS011;6708;49.814;8.652;2023-08-21T02:29:02;3.30;;;3.10;;
13279;SDS011;6708;49.814;8.652;2023-08-21T02:31:34;3.27;;;3.17;;
13279;SDS011;6708;49.814;8.652;2023-08-21T02:34:03;3.23;;;3.13;;
13279;SDS011;6708;49.814;8.652;2023-08-21T02:36:31;3.37;;;3.17;;
13279;SDS011;6708;49.814;8.652;2023-08-21T02:39:00;3.07;;;2.90;;
13279;SDS011;6708;49.814;8.652;2023-08-21T02:41:29;3.40;;;3.30;;
13279;SDS011;6708;49.814;8.652;2023-08-21T02:43:57;4.23;;;4.00;;
13279;SDS011;6708;49.814;8.652;2023-08-21T02:46:25;3.80;;;3.50;;
13279;SDS011;6708;49.814;8.652;2023-08-21T02:48:56;3.50;;;3.37;;
13279;SDS011;6708;49.814;8.652;2023-08-21T02:51:24;3.67;;;3.37;;
13279;SDS011;6708;49.814;8.652;2023-08-21T02:53:53;3.57;;;3.27;;
13279;SDS011;6708;49.814;8.652;2023-08-21T02:56:21;3.50;;;3.30;;
13279;SDS011;6708;49.814;8.652;2023-08-21T02:58:50;4.10;;;3.80;;
13279;SDS011;6708;49.814;8.652;2023-08-21T03:01:18;3.77;;;3.47;;
13279;SDS011;6708;49.814;8.652;2023-08-21T03:03:46;3.47;;;3.23;;
13279;SDS011;6708;49.814;8.652;2023-08-21T03:06:17;3.57;;;3.37;;
13279;SDS011;6708;49.814;8.652;2023-08-21T03:08:46;3.87;;;3.60;;
13279;SDS011;6708;49.814;8.652;2023-08-21T03:11:14;3.27;;;3.13;;
13279;SDS011;6708;49.814;8.652;2023-08-21T03:13:43;3.80;;;3.50;;
13279;SDS011;6708;49.814;8.652;2023-08-21T03:16:11;3.83;;;3.53;;
13279;SDS011;6708;49.814;8.652;2023-08-21T03:18:53;3.50;;;3.33;;
13279;SDS011;6708;49.814;8.652;2023-08-21T03:21:27;3.80;;;3.60;;
13279;SDS011;6708;49.814;8.652;2023-08-21T03:23:57;3.30;;;3.03;;
13279;SDS011;6708;49.814;8.652;2023-08-21T03:26:27;3.20;;;3.10;;
13279;SDS011;6708;49.814;8.652;2023-08-21T03:28:55;3.60;;;3.40;;
13279;SDS011;6708;49.814;8.652;2023-08-21T03:31:24;3.90;;;3.60;;
13279;SDS011;6708;49.814;8.652;2023-08-21T03:33:52;3.60;;;3.30;;
13279;SDS011;6708;49.814;8.652;2023-08-21T03:36:22;3.50;;;3.13;;
13279;SDS011;6708;49.814;8.652;2023-08-21T03:38:59;4.33;;;3.33;;
13279;SDS011;6708;49.814;8.652;2023-08-21T03:41:31;4.80;;;3.80;;
13279;SDS011;6708;49.814;8.652;2023-08-21T03:43:59;4.17;;;3.70;;
13279;SDS011;6708;49.814;8.652;2023-08-21T03:46:28;3.63;;;3.43;;
13279;SDS011;6708;49.814;8.652;2023-08-21T03:48:56;3.67;;;3.47;;
13279;SDS011;6708;49.814;8.652;2023-08-21T03:51:25;4.67;;;3.50;;
13279;SDS011;6708;49.814;8.652;2023-08-21T03:53:55;5.53;;;3.77;;
13279;SDS011;6708;49.814;8.652;2023-08-21T03:56:26;4.00;;;3.80;;
13279;SDS011;6708;49.814;8.652;2023-08-21T03:58:54;3.67;;;3.47;;
13279;SDS011;6708;49.814;8.652;2023-08-21T04:01:22;4.00;;;3.70;;
13279;SDS011;6708;49.814;8.652;2023-08-21T04:03:51;3.90;;;3.70;;
13279;SDS011;6708;49.814;8.652;2023-08-21T04:06:19;4.47;;;4.07;;
13279;SDS011;6708;49.814;8.652;2023-08-21T04:08:48;4.17;;;3.87;;
13279;SDS011;6708;49.814;8.652;2023-08-21T04:11:17;3.83;;;3.63;;
13279;SDS011;6708;49.814;8.652;2023-08-21T04:13:48;3.70;;;3.50;;
13279;SDS011;6708;49.814;8.652;2023-08-21T04:16:17;4.10;;;3.90;;
13279;SDS011;6708;49.814;8.652;2023-08-21T04:18:46;4.50;;;4.20;;
13279;SDS011;6708;49.814;8.652;2023-08-21T04:21:15;4.30;;;3.80;;
13279;SDS011;6708;49.814;8.652;2023-08-21T04:23:43;4.23;;;4.03;;
13279;SDS011;6708;49.814;8.652;2023-08-21T04:26:13;4.47;;;4.00;;
13279;SDS011;6708;49.814;8.652;2023-08-21T04:28:41;4.00;;;3.77;;
13279;SDS011;6708;49.814;8.652;2023-08-21T04:31:12;4.87;;;3.60;;
13279;SDS011;6708;49.814;8.652;2023-08-21T04:33:41;4.40;;;4.10;;
13279;SDS011;6708;49.814;8.652;2023-08-21T04:36:14;3.80;;;3.50;;
13279;SDS011;6708;49.814;8.652;2023-08-21T04:38:45;4.87;;;4.03;;
13279;SDS011;6708;49.814;8.652;2023-08-21T04:41:13;4.10;;;3.80;;
13279;SDS011;6708;49.814;8.652;2023-08-21T04:43:44;4.10;;;3.90;;
13279;SDS011;6708;49.814;8.652;2023-08-21T04:46:15;3.47;;;3.33;;
13279;SDS011;6708;49.814;8.652;2023-08-21T04:48:45;4.23;;;3.80;;
13279;SDS011;6708;49.814;8.652;2023-08-21T04:51:13;4.23;;;3.77;;
13279;SDS011;6708;49.814;8.652;2023-08-21T04:53:41;3.57;;;3.37;;
13279;SDS011;6708;49.814;8.652;2023-08-21T04:56:15;4.27;;;3.87;;
13279;SDS011;6708;49.814;8.652;2023-08-21T04:58:43;4.20;;;3.90;;
13279;SDS011;6708;49.814;8.652;2023-08-21T05:01:12;4.33;;;3.90;;
13279;SDS011;6708;49.814;8.652;2023-08-21T05:03:46;3.97;;;3.77;;
13279;SDS011;6708;49.814;8.652;2023-08-21T05:06:17;3.70;;;3.50;;
13279;SDS011;6708;49.814;8.652;2023-08-21T05:08:45;3.87;;;3.60;;
13279;SDS011;6708;49.814;8.652;2023-08-21T05:11:14;4.50;;;4.20;;
13279;SDS011;6708;49.814;8.652;2023-08-21T05:13:42;3.60;;;3.40;;
13279;SDS011;6708;49.814;8.652;2023-08-21T05:16:18;4.40;;;4.20;;
13279;SDS011;6708;49.814;8.652;2023-08-21T05:18:47;4.70;;;4.40;;
13279;SDS011;6708;49.814;8.652;2023-08-21T05:21:16;4.60;;;4.20;;
13279;SDS011;6708;49.814;8.652;2023-08-21T05:23:44;4.40;;;4.10;;
13279;SDS011;6708;49.814;8.652;2023-08-21T05:26:12;3.67;;;3.57;;
13279;SDS011;6708;49.814;8.652;2023-08-21T05:28:41;4.27;;;4.07;;
13279;SDS011;6708;49.814;8.652;2023-08-21T05:31:09;3.87;;;3.57;;
13279;SDS011;6708;49.814;8.652;2023-08-21T05:33:58;4.03;;;3.83;;
13279;SDS011;6708;49.814;8.652;2023-08-21T05:36:26;3.60;;;3.50;;
13279;SDS011;6708;49.814;8.652;2023-08-21T05:38:56;4.17;;;3.87;;
13279;SDS011;6708;49.814;8.652;2023-08-21T05:41:27;4.33;;;4.13;;
13279;SDS011;6708;49.814;8.652;2023-08-21T05:43:55;4.23;;;3.83;;
13279;SDS011;6708;49.814;8.652;2023-08-21T05:46:24;4.00;;;3.80;;
13279;SDS011;6708;49.814;8.652;2023-08-21T05:48:53;3.60;;;3.40;;
13279;SDS011;6708;49.814;8.652;2023-08-21T05:51:24;5.13;;;4.63;;
13279;SDS011;6708;49.814;8.652;2023-08-21T05:53:52;4.27;;;3.97;;
13279;SDS011;6708;49.814;8.652;2023-08-21T05:56:21;4.40;;;4.10;;
13279;SDS011;6708;49.814;8.652;2023-08-21T05:58:51;4.73;;;4.33;;
13279;SDS011;6708;49.814;8.652;2023-08-21T06:01:22;3.93;;;3.63;;
13279;SDS011;6708;49.814;8.652;2023-08-21T06:03:51;4.23;;;3.90;;
13279;SDS011;6708;49.814;8.652;2023-08-21T06:06:41;4.40;;;4.10;;
13279;SDS011;6708;49.814;8.652;2023-08-21T06:09:09;4.30;;;4.00;;
13279;SDS011;6708;49.814;8.652;2023-08-21T06:11:38;4.30;;;4.00;;
13279;SDS011;6708;49.814;8.652;2023-08-21T06:14:07;7.67;;;4.20;;
13279;SDS011;6708;49.814;8.652;2023-08-21T06:16:35;4.57;;;4.27;;
13279;SDS011;6708;49.814;8.652;2023-08-21T06:19:03;4.57;;;4.33;;
13279;SDS011;6708;49.814;8.652;2023-08-21T06:21:32;4.27;;;4.00;;
13279;SDS011;6708;49.814;8.652;2023-08-21T06:24:03;4.50;;;4.17;;
13279;SDS011;6708;49.814;8.652;2023-08-21T06:26:32;4.87;;;3.70;;
13279;SDS011;6708;49.814;8.652;2023-08-21T06:29:00;4.60;;;4.17;;
13279;SDS011;6708;49.814;8.652;2023-08-21T06:31:29;3.97;;;3.67;;
13279;SDS011;6708;49.814;8.652;2023-08-21T06:33:57;4.17;;;3.87;;
13279;SDS011;6708;49.814;8.652;2023-08-21T06:36:26;3.90;;;3.70;;
13279;SDS011;6708;49.814;8.652;2023-08-21T06:38:54;4.00;;;3.70;;
13279;SDS011;6708;49.814;8.652;2023-08-21T06:41:25;3.97;;;3.67;;
13279;SDS011;6708;49.814;8.652;2023-08-21T06:43:54;3.87;;;3.57;;
13279;SDS011;6708;49.814;8.652;2023-08-21T06:46:24;3.95;;;3.75;;
13279;SDS011;6708;49.814;8.652;2023-08-21T06:48:52;3.43;;;3.23;;
13279;SDS011;6708;49.814;8.652;2023-08-21T06:51:20;4.57;;;4.13;;
13279;SDS011;6708;49.814;8.652;2023-08-21T06:53:49;4.03;;;3.75;;
13279;SDS011;6708;49.814;8.652;2023-08-21T06:56:17;4.28;;;3.97;;
13279;SDS011;6708;49.814;8.652;2023-08-21T06:58:48;3.60;;;3.40;;
13279;SDS011;6708;49.814;8.652;2023-08-21T07:01:17;4.38;;;3.72;;
13279;SDS011;6708;49.814;8.652;2023-08-21T07:03:45;4.13;;;3.88;;
13279;SDS011;6708;49.814;8.652;2023-08-21T07:06:14;3.88;;;3.67;;
13279;SDS011;6708;49.814;8.652;2023-08-21T07:08:42;4.10;;;3.80;;
13279;SDS011;6708;49.814;8.652;2023-08-21T07:11:10;4.00;;;3.72;;
13279;SDS011;6708;49.814;8.652;2023-08-21T07:13:39;4.05;;;3.85;;
13279;SDS011;6708;49.814;8.652;2023-08-21T07:16:10;4.35;;;4.05;;
13279;SDS011;6708;49.814;8.652;2023-08-21T07:18:38;4.30;;;4.00;;
13279;SDS011;6708;49.814;8.652;2023-08-21T07:21:07;6.45;;;4.10;;
13279;SDS011;6708;49.814;8.652;2023-08-21T07:23:35;4.40;;;4.10;;
13279;SDS011;6708;49.814;8.652;2023-08-21T07:26:04;5.45;;;4.90;;
13279;SDS011;6708;49.814;8.652;2023-08-21T07:28:33;5.18;;;4.07;;
13279;SDS011;6708;49.814;8.652;2023-08-21T07:31:01;7.18;;;4.25;;
13279;SDS011;6708;49.814;8.652;2023-08-21T07:33:32;4.85;;;4.25;;
13279;SDS011;6708;49.814;8.652;2023-08-21T07:36:01;4.45;;;4.15;;
13279;SDS011;6708;49.814;8.652;2023-08-21T07:38:31;4.13;;;3.92;;
13279;SDS011;6708;49.814;8.652;2023-08-21T07:41:03;4.75;;;4.30;;
13279;SDS011;6708;49.814;8.652;2023-08-21T07:43:33;4.00;;;3.65;;
13279;SDS011;6708;49.814;8.652;2023-08-21T07:46:02;4.18;;;3.88;;
13279;SDS011;6708;49.814;8.652;2023-08-21T07:48:33;4.97;;;4.68;;
13279;SDS011;6708;49.814;8.652;2023-08-21T07:51:02;4.30;;;4.00;;
13279;SDS011;6708;49.814;8.652;2023-08-21T07:53:31;5.03;;;4.20;;
13279;SDS011;6708;49.814;8.652;2023-08-21T07:56:00;4.65;;;4.22;;
13279;SDS011;6708;49.814;8.652;2023-08-21T07:58:29;4.80;;;4.28;;
13279;SDS011;6708;49.814;8.652;2023-08-21T08:00:57;4.70;;;4.40;;
13279;SDS011;6708;49.814;8.652;2023-08-21T08:03:26;6.45;;;4.03;;
13279;SDS011;6708;49.814;8.652;2023-08-21T08:05:57;6.70;;;4.03;;
13279;SDS011;6708;49.814;8.652;2023-08-21T08:08:25;5.65;;;4.18;;
13279;SDS011;6708;49.814;8.652;2023-08-21T08:10:54;4.32;;;3.72;;
13279;SDS011;6708;49.814;8.652;2023-08-21T08:13:22;3.97;;;3.78;;
13279;SDS011;6708;49.814;8.652;2023-08-21T08:15:51;7.88;;;4.32;;
13279;SDS011;6708;49.814;8.652;2023-08-21T08:18:19;4.60;;;4.20;;
13279;SDS011;6708;49.814;8.652;2023-08-21T08:20:48;4.47;;;3.78;;
13279;SDS011;6708;49.814;8.652;2023-08-21T08:23:19;4.72;;;4.22;;
13279;SDS011;6708;49.814;8.652;2023-08-21T08:25:48;4.00;;;3.70;;
13279;SDS011;6708;49.814;8.652;2023-08-21T08:28:16;5.88;;;4.63;;
13279;SDS011;6708;49.814;8.652;2023-08-21T08:30:45;4.43;;;3.97;;
13279;SDS011;6708;49.814;8.652;2023-08-21T08:33:13;5.82;;;4.20;;
13279;SDS011;6708;49.814;8.652;2023-08-21T08:35:45;11.45;;;3.80;;
13279;SDS011;6708;49.814;8.652;2023-08-21T08:38:14;4.22;;;3.72;;
13279;SDS011;6708;49.814;8.652;2023-08-21T08:40:45;4.13;;;3.65;;
13279;SDS011;6708;49.814;8.652;2023-08-21T08:43:14;3.75;;;3.55;;
13279;SDS011;6708;49.814;8.652;2023-08-21T08:45:43;3.92;;;3.60;;
13279;SDS011;6708;49.814;8.652;2023-08-21T08:48:13;3.55;;;3.25;;
13279;SDS011;6708;49.814;8.652;2023-08-21T08:50:41;4.57;;;4.00;;
13279;SDS011;6708;49.814;8.652;2023-08-21T08:53:10;5.03;;;3.35;;
13279;SDS011;6708;49.814;8.652;2023-08-21T08:55:39;3.70;;;3.45;;
13279;SDS011;6708;49.814;8.652;2023-08-21T08:58:09;4.63;;;4.07;;
13279;SDS011;6708;49.814;8.652;2023-08-21T09:00:38;4.07;;;3.55;;
13279;SDS011;6708;49.814;8.652;2023-08-21T09:03:06;6.50;;;3.17;;
13279;SDS011;6708;49.814;8.652;2023-08-21T09:05:35;2.83;;;2.72;;
13279;SDS011;6708;49.814;8.652;2023-08-21T09:08:09;3.38;;;3.13;;
13279;SDS011;6708;49.814;8.652;2023-08-21T09:10:38;3.88;;;3.30;;
13279;SDS011;6708;49.814;8.652;2023-08-21T09:13:14;3.70;;;3.45;;
13279;SDS011;6708;49.814;8.652;2023-08-21T09:15:44;3.38;;;3.15;;
13279;SDS011;6708;49.814;8.652;2023-08-21T09:18:13;3.25;;;3.05;;
13279;SDS011;6708;49.814;8.652;2023-08-21T09:20:43;3.33;;;3.10;;
13279;SDS011;6708;49.814;8.652;2023-08-21T09:23:13;3.30;;;3.10;;
13279;SDS011;6708;49.814;8.652;2023-08-21T09:25:43;3.80;;;3.40;;
13279;SDS011;6708;49.814;8.652;2023-08-21T09:28:18;3.88;;;3.58;;
13279;SDS011;6708;49.814;8.652;2023-08-21T09:30:48;3.50;;;3.22;;
13279;SDS011;6708;49.814;8.652;2023-08-21T09:33:17;3.33;;;3.03;;
13279;SDS011;6708;49.814;8.652;2023-08-21T09:35:46;4.68;;;3.13;;
13279;SDS011;6708;49.814;8.652;2023-08-21T09:38:15;3.13;;;2.88;;
13279;SDS011;6708;49.814;8.652;2023-08-21T09:40:50;3.45;;;3.25;;
13279;SDS011;6708;49.814;8.652;2023-08-21T09:43:22;4.93;;;3.63;;
13279;SDS011;6708;49.814;8.652;2023-08-21T09:45:52;3.22;;;3.00;;
13279;SDS011;6708;49.814;8.652;2023-08-21T09:48:22;3.08;;;2.85;;
13279;SDS011;6708;49.814;8.652;2023-08-21T09:50:52;5.70;;;3.15;;
13279;SDS011;6708;49.814;8.652;2023-08-21T09:53:21;4.90;;;3.10;;
13279;SDS011;6708;49.814;8.652;2023-08-21T09:55:50;2.90;;;2.78;;
13279;SDS011;6708;49.814;8.652;2023-08-21T09:58:23;2.95;;;2.75;;
13279;SDS011;6708;49.814;8.652;2023-08-21T10:00:52;3.13;;;2.92;;
13279;SDS011;6708;49.814;8.652;2023-08-21T10:03:25;3.05;;;2.72;;
13279;SDS011;6708;49.814;8.652;2023-08-21T10:05:55;3.05;;;2.85;;
13279;SDS011;6708;49.814;8.652;2023-08-21T10:08:25;4.78;;;3.00;;
13279;SDS011;6708;49.814;8.652;2023-08-21T10:10:53;3.08;;;2.80;;
13279;SDS011;6708;49.814;8.652;2023-08-21T10:13:25;2.95;;;2.65;;
13279;SDS011;6708;49.814;8.652;2023-08-21T10:15:54;6.05;;;3.17;;
13279;SDS011;6708;49.814;8.652;2023-08-21T10:18:23;3.28;;;2.97;;
13279;SDS011;6708;49.814;8.652;2023-08-21T10:20:52;5.47;;;2.95;;
13279;SDS011;6708;49.814;8.652;2023-08-21T10:23:24;3.30;;;3.10;;
13279;SDS011;6708;49.814;8.652;2023-08-21T10:25:54;3.45;;;3.15;;
13279;SDS011;6708;49.814;8.652;2023-08-21T10:28:26;3.50;;;3.30;;
13279;SDS011;6708;49.814;8.652;2023-08-21T10:33:53;3.88;;;3.60;;
13279;SDS011;6708;49.814;8.652;2023-08-21T10:36:37;3.63;;;3.40;;
13279;SDS011;6708;49.814;8.652;2023-08-21T10:39:12;3.70;;;3.50;;
13279;SDS011;6708;49.814;8.652;2023-08-21T10:41:45;4.43;;;3.38;;
13279;SDS011;6708;49.814;8.652;2023-08-21T10:44:36;2.90;;;2.80;;
13279;SDS011;6708;49.814;8.652;2023-08-21T10:47:15;3.13;;;2.83;;
13279;SDS011;6708;49.814;8.652;2023-08-21T10:49:44;3.85;;;3.47;;
13279;SDS011;6708;49.814;8.652;2023-08-21T10:52:14;3.78;;;3.30;;
13279;SDS011;6708;49.814;8.652;2023-08-21T10:54:49;2.90;;;2.80;;
13279;SDS011;6708;49.814;8.652;2023-08-21T10:57:18;3.60;;;3.40;;
13279;SDS011;6708;49.814;8.652;2023-08-21T10:59:57;3.72;;;3.40;;
13279;SDS011;6708;49.814;8.652;2023-08-21T11:02:28;2.90;;;2.80;;
13279;SDS011;6708;49.814;8.652;2023-08-21T11:04:58;3.17;;;2.97;;
13279;SDS011;6708;49.814;8.652;2023-08-21T11:07:28;3.00;;;2.80;;
13279;SDS011;6708;49.814;8.652;2023-08-21T11:09:56;2.92;;;2.80;;
13279;SDS011;6708;49.814;8.652;2023-08-21T11:12:24;3.58;;;3.28;;
13279;SDS011;6708;49.814;8.652;2023-08-21T11:14:55;2.80;;;2.60;;
13279;SDS011;6708;49.814;8.652;2023-08-21T11:17:24;2.72;;;2.53;;
13279;SDS011;6708;49.814;8.652;2023-08-21T11:19:52;2.83;;;2.63;;
13279;SDS011;6708;49.814;8.652;2023-08-21T11:22:20;5.88;;;3.28;;
13279;SDS011;6708;49.814;8.652;2023-08-21T11:24:56;2.80;;;2.60;;
13279;SDS011;6708;49.814;8.652;2023-08-21T11:27:24;3.13;;;2.28;;
13279;SDS011;6708;49.814;8.652;2023-08-21T11:29:56;2.05;;;1.95;;
13279;SDS011;6708;49.814;8.652;2023-08-21T11:32:24;4.82;;;2.40;;
13279;SDS011;6708;49.814;8.652;2023-08-21T11:34:53;2.40;;;2.30;;
13279;SDS011;6708;49.814;8.652;2023-08-21T11:37:23;21.27;;;3.53;;
13279;SDS011;6708;49.814;8.652;2023-08-21T11:39:53;2.65;;;2.55;;
13279;SDS011;6708;49.814;8.652;2023-08-21T11:42:22;2.28;;;2.17;;
13279;SDS011;6708;49.814;8.652;2023-08-21T11:44:59;2.33;;;2.10;;
13279;SDS011;6708;49.814;8.652;2023-08-21T11:47:30;2.08;;;1.98;;
13279;SDS011;6708;49.814;8.652;2023-08-21T11:50:01;3.55;;;2.55;;
13279;SDS011;6708;49.814;8.652;2023-08-21T11:52:30;2.20;;;2.10;;
13279;SDS011;6708;49.814;8.652;2023-08-21T11:55:06;2.20;;;2.10;;
13279;SDS011;6708;49.814;8.652;2023-08-21T11:57:36;1.63;;;1.60;;
13279;SDS011;6708;49.814;8.652;2023-08-21T12:00:17;1.95;;;1.83;;
13279;SDS011;6708;49.814;8.652;2023-08-21T12:02:54;1.52;;;1.52;;
13279;SDS011;6708;49.814;8.652;2023-08-21T12:05:23;2.85;;;1.67;;
13279;SDS011;6708;49.814;8.652;2023-08-21T12:07:54;2.08;;;1.83;;
13279;SDS011;6708;49.814;8.652;2023-08-21T12:10:23;1.33;;;1.33;;
13279;SDS011;6708;49.814;8.652;2023-08-21T12:12:52;1.80;;;1.70;;
13279;SDS011;6708;49.814;8.652;2023-08-21T12:15:23;1.25;;;1.25;;
13279;SDS011;6708;49.814;8.652;2023-08-21T12:17:51;1.33;;;1.23;;
13279;SDS011;6708;49.814;8.652;2023-08-21T12:20:20;1.90;;;1.70;;
13279;SDS011;6708;49.814;8.652;2023-08-21T12:22:48;1.00;;;1.00;;
13279;SDS011;6708;49.814;8.652;2023-08-21T12:25:17;2.47;;;1.40;;
13279;SDS011;6708;49.814;8.652;2023-08-21T12:27:45;1.38;;;1.10;;
13279;SDS011;6708;49.814;8.652;2023-08-21T12:30:13;1.00;;;1.00;;
13279;SDS011;6708;49.814;8.652;2023-08-21T12:32:44;2.88;;;1.17;;
13279;SDS011;6708;49.814;8.652;2023-08-21T12:35:13;1.00;;;1.00;;
13279;SDS011;6708;49.814;8.652;2023-08-21T12:37:41;0.90;;;0.90;;
13279;SDS011;6708;49.814;8.652;2023-08-21T12:40:10;1.40;;;1.30;;
13279;SDS011;6708;49.814;8.652;2023-08-21T12:42:39;1.48;;;1.17;;
13279;SDS011;6708;49.814;8.652;2023-08-21T12:45:07;1.23;;;1.10;;
13279;SDS011;6708;49.814;8.652;2023-08-21T12:47:37;1.27;;;1.00;;
13279;SDS011;6708;49.814;8.652;2023-08-21T12:50:09;2.40;;;1.15;;
13279;SDS011;6708;49.814;8.652;2023-08-21T12:52:38;0.95;;;0.75;;
13279;SDS011;6708;49.814;8.652;2023-08-21T12:55:06;1.10;;;1.00;;
13279;SDS011;6708;49.814;8.652;2023-08-21T12:57:35;0.80;;;0.80;;
13279;SDS011;6708;49.814;8.652;2023-08-21T13:00:04;0.90;;;0.90;;
13279;SDS011;6708;49.814;8.652;2023-08-21T13:02:34;0.80;;;0.80;;
13279;SDS011;6708;49.814;8.652;2023-08-21T13:05:02;0.70;;;0.70;;
13279;SDS011;6708;49.814;8.652;2023-08-21T13:07:34;1.00;;;1.00;;
13279;SDS011;6708;49.814;8.652;2023-08-21T13:10:03;0.93;;;0.93;;
13279;SDS011;6708;49.814;8.652;2023-08-21T13:12:31;0.52;;;0.52;;
13279;SDS011;6708;49.814;8.652;2023-08-21T13:15:00;0.82;;;0.82;;
13279;SDS011;6708;49.814;8.652;2023-08-21T13:17:28;3.30;;;1.25;;
13279;SDS011;6708;49.814;8.652;2023-08-21T13:19:56;1.08;;;1.00;;
13279;SDS011;6708;49.814;8.652;2023-08-21T13:22:25;1.60;;;0.85;;
13279;SDS011;6708;49.814;8.652;2023-08-21T13:24:56;3.70;;;1.05;;
13279;SDS011;6708;49.814;8.652;2023-08-21T13:27:24;0.80;;;0.80;;
13279;SDS011;6708;49.814;8.652;2023-08-21T13:29:52;2.85;;;0.80;;
13279;SDS011;6708;49.814;8.652;2023-08-21T13:32:21;0.90;;;0.85;;
13279;SDS011;6708;49.814;8.652;2023-08-21T13:34:49;0.82;;;0.82;;
13279;SDS011;6708;49.814;8.652;2023-08-21T13:37:17;0.65;;;0.65;;
13279;SDS011;6708;49.814;8.652;2023-08-21T13:39:47;0.80;;;0.80;;
13279;SDS011;6708;49.814;8.652;2023-08-21T13:42:18;0.50;;;0.50;;
13279;SDS011;6708;49.814;8.652;2023-08-21T13:44:46;1.05;;;0.70;;
13279;SDS011;6708;49.814;8.652;2023-08-21T13:47:15;1.08;;;1.02;;
13279;SDS011;6708;49.814;8.652;2023-08-21T13:49:43;1.88;;;0.95;;
13279;SDS011;6708;49.814;8.652;2023-08-21T13:52:12;0.70;;;0.70;;
13279;SDS011;6708;49.814;8.652;2023-08-21T13:54:40;3.10;;;0.88;;
13279;SDS011;6708;49.814;8.652;2023-08-21T13:57:08;2.13;;;0.73;;
13279;SDS011;6708;49.814;8.652;2023-08-21T13:59:39;0.70;;;0.70;;
13279;SDS011;6708;49.814;8.652;2023-08-21T14:02:08;0.75;;;0.73;;
13279;SDS011;6708;49.814;8.652;2023-08-21T14:04:36;0.98;;;0.98;;
13279;SDS011;6708;49.814;8.652;2023-08-21T14:07:05;0.75;;;0.75;;
13279;SDS011;6708;49.814;8.652;2023-08-21T14:09:33;1.00;;;0.90;;
13279;SDS011;6708;49.814;8.652;2023-08-21T14:12:02;3.03;;;0.80;;
13279;SDS011;6708;49.814;8.652;2023-08-21T14:14:32;0.93;;;0.60;;
13279;SDS011;6708;49.814;8.652;2023-08-21T14:17:03;0.77;;;0.77;;
13279;SDS011;6708;49.814;8.652;2023-08-21T14:19:31;0.75;;;0.75;;
13279;SDS011;6708;49.814;8.652;2023-08-21T14:22:00;0.80;;;0.80;;
13279;SDS011;6708;49.814;8.652;2023-08-21T14:24:28;0.70;;;0.70;;
13279;SDS011;6708;49.814;8.652;2023-08-21T14:26:56;1.58;;;0.77;;
13279;SDS011;6708;49.814;8.652;2023-08-21T14:29:22;3.58;;;0.65;;
13279;SDS011;6708;49.814;8.652;2023-08-21T14:31:51;0.70;;;0.70;;
13279;SDS011;6708;49.814;8.652;2023-08-21T14:34:22;1.52;;;0.60;;
13279;SDS011;6708;49.814;8.652;2023-08-21T14:36:51;1.48;;;1.00;;
13279;SDS011;6708;49.814;8.652;2023-08-21T14:39:19;1.80;;;1.00;;
13279;SDS011;6708;49.814;8.652;2023-08-21T14:41:52;4.22;;;0.90;;
13279;SDS011;6708;49.814;8.652;2023-08-21T14:44:21;0.73;;;0.73;;
13279;SDS011;6708;49.814;8.652;2023-08-21T14:46:51;1.23;;;0.90;;
13279;SDS011;6708;49.814;8.652;2023-08-21T14:49:24;1.13;;;1.02;;
13279;SDS011;6708;49.814;8.652;2023-08-21T14:51:53;1.00;;;1.00;;
13279;SDS011;6708;49.814;8.652;2023-08-21T14:54:22;0.93;;;0.93;;
13279;SDS011;6708;49.814;8.652;2023-08-21T14:56:50;1.52;;;1.42;;
13279;SDS011;6708;49.814;8.652;2023-08-21T14:59:19;0.80;;;0.80;;
13279;SDS011;6708;49.814;8.652;2023-08-21T15:01:47;0.90;;;0.80;;
13279;SDS011;6708;49.814;8.652;2023-08-21T15:04:15;1.20;;;1.10;;
13279;SDS011;6708;49.814;8.652;2023-08-21T15:06:46;0.90;;;0.90;;
13279;SDS011;6708;49.814;8.652;2023-08-21T15:09:15;1.00;;;0.98;;
13279;SDS011;6708;49.814;8.652;2023-08-21T15:11:43;2.15;;;1.00;;
13279;SDS011;6708;49.814;8.652;2023-08-21T15:14:12;0.88;;;0.88;;
13279;SDS011;6708;49.814;8.652;2023-08-21T15:16:40;1.60;;;1.08;;
13279;SDS011;6708;49.814;8.652;2023-08-21T15:19:09;1.38;;;1.27;;